Time;durP1;ratioP1;P1;durP2;ratioP2;P2;SDS_P1;SDS_P2;PMS_P1;PMS_P2;Temp;Humidity;BMP_temperature;BMP_pressure;BME280_temperature;BME280_humidity;BME280_pressure;Samples;Min_cycle;Max_cycle;Signal;HPM_P1;HPM_P2
2023/06/07 00:02:08;;;;;;;18.70;14.35;;;;;;;;;;4991379;28;20034;-73
2023/06/07 00:04:35;;;;;;;19.30;14.57;;;;;;;;;;4991541;28;20026;-73
2023/06/07 00:07:02;;;;;;;19.67;15.35;;;;;;;;;;4991296;28;20030;-72
2023/06/07 00:09:29;;;;;;;18.00;14.07;;;;;;;;;;5009339;28;20045;-72
2023/06/07 00:11:55;;;;;;;18.15;14.63;;;;;;;;;;4991560;28;20034;-72
2023/06/07 00:14:21;;;;;;;20.83;15.48;;;;;;;;;;4991165;28;20056;-72
2023/06/07 00:16:49;;;;;;;19.35;15.98;;;;;;;;;;5007562;28;20105;-73
2023/06/07 00:19:20;;;;;;;16.48;14.07;;;;;;;;;;4990874;28;20022;-73
2023/06/07 00:21:49;;;;;;;15.65;13.88;;;;;;;;;;4991237;28;20061;-74
2023/06/07 00:24:18;;;;;;;20.00;14.32;;;;;;;;;;4991872;28;20523;-72
2023/06/07 00:26:44;;;;;;;16.08;14.10;;;;;;;;;;5008129;28;20022;-73
2023/06/07 00:29:10;;;;;;;19.42;15.15;;;;;;;;;;4990777;28;20052;-73
2023/06/07 00:31:36;;;;;;;21.33;14.57;;;;;;;;;;4991403;28;20084;-73
2023/06/07 00:34:02;;;;;;;19.98;15.00;;;;;;;;;;5011867;28;20370;-71
2023/06/07 00:36:28;;;;;;;17.65;13.77;;;;;;;;;;5012612;28;20052;-74
2023/06/07 00:38:54;;;;;;;20.55;15.90;;;;;;;;;;4994912;28;20114;-73
2023/06/07 00:41:20;;;;;;;18.20;14.52;;;;;;;;;;5012765;28;20131;-73
2023/06/07 00:43:47;;;;;;;17.67;13.90;;;;;;;;;;4994934;28;20034;-73
2023/06/07 00:46:14;;;;;;;20.20;15.13;;;;;;;;;;5011189;28;20049;-73
2023/06/07 00:48:40;;;;;;;17.70;14.30;;;;;;;;;;5010939;28;20044;-72
2023/06/07 00:51:06;;;;;;;22.85;16.55;;;;;;;;;;5012437;28;20429;-73
2023/06/07 00:53:32;;;;;;;18.35;14.23;;;;;;;;;;5012701;28;20033;-71
2023/06/07 00:55:58;;;;;;;19.30;14.40;;;;;;;;;;5010756;28;20031;-72
2023/06/07 00:58:25;;;;;;;19.50;14.65;;;;;;;;;;5011236;28;20036;-72
2023/06/07 01:00:51;;;;;;;20.13;15.43;;;;;;;;;;5011156;28;20116;-74
2023/06/07 01:03:17;;;;;;;16.77;13.57;;;;;;;;;;5010983;28;20462;-72
2023/06/07 01:05:44;;;;;;;16.95;13.77;;;;;;;;;;5010834;28;20060;-72
2023/06/07 01:08:10;;;;;;;19.52;14.65;;;;;;;;;;4994033;28;20087;-71
2023/06/07 01:10:36;;;;;;;21.80;14.65;;;;;;;;;;5012032;28;20029;-72
2023/06/07 01:13:03;;;;;;;17.52;13.73;;;;;;;;;;5012087;28;20018;-74
2023/06/07 01:15:30;;;;;;;23.25;14.43;;;;;;;;;;5012884;28;20056;-73
2023/06/07 01:17:57;;;;;;;17.92;14.48;;;;;;;;;;5011405;28;20028;-72
2023/06/07 01:20:25;;;;;;;22.40;14.88;;;;;;;;;;5013146;28;20060;-72
2023/06/07 01:22:57;;;;;;;16.83;14.18;;;;;;;;;;4994909;28;20032;-72
2023/06/07 01:25:23;;;;;;;16.55;12.88;;;;;;;;;;4995525;28;20022;-72
2023/06/07 01:27:52;;;;;;;17.50;14.27;;;;;;;;;;5012666;28;20104;-72
2023/06/07 01:30:19;;;;;;;17.05;13.80;;;;;;;;;;5011566;28;20037;-72
2023/06/07 01:32:46;;;;;;;17.00;13.80;;;;;;;;;;4993738;28;20034;-72
2023/06/07 01:35:12;;;;;;;18.30;13.40;;;;;;;;;;4993228;28;20049;-73
2023/06/07 01:37:43;;;;;;;14.60;12.40;;;;;;;;;;4994031;28;20064;-75
2023/06/07 01:40:11;;;;;;;16.35;13.40;;;;;;;;;;5012060;28;20084;-76
2023/06/07 01:42:39;;;;;;;14.00;11.20;;;;;;;;;;5011747;28;20026;-74
2023/06/07 01:45:09;;;;;;;15.65;13.25;;;;;;;;;;5009598;28;20030;-73
2023/06/07 01:47:35;;;;;;;15.27;13.65;;;;;;;;;;5011921;28;20109;-72
2023/06/07 01:50:00;;;;;;;19.23;13.93;;;;;;;;;;5010324;28;20501;-75
2023/06/07 01:52:27;;;;;;;15.98;13.25;;;;;;;;;;5011902;28;20124;-73
2023/06/07 01:54:53;;;;;;;14.63;12.98;;;;;;;;;;4993095;28;20125;-73
2023/06/07 01:57:56;;;;;;;20.17;15.20;;;;;;;;;;5011017;28;20118;-72
2023/06/07 02:00:55;;;;;;;16.20;13.32;;;;;;;;;;5010910;28;20045;-72
2023/06/07 02:03:41;;;;;;;16.48;14.70;;;;;;;;;;4993421;28;20022;-72
2023/06/07 02:06:13;;;;;;;16.88;14.13;;;;;;;;;;5011053;28;20045;-72
2023/06/07 02:08:52;;;;;;;17.50;14.73;;;;;;;;;;4993552;28;20034;-72
2023/06/07 02:11:20;;;;;;;16.67;13.45;;;;;;;;;;5011107;28;20629;-73
2023/06/07 02:13:49;;;;;;;17.58;14.00;;;;;;;;;;4991811;28;20026;-73
2023/06/07 02:16:15;;;;;;;16.95;14.98;;;;;;;;;;4992429;28;20026;-73
2023/06/07 02:18:41;;;;;;;18.70;15.07;;;;;;;;;;4993230;28;20053;-73
2023/06/07 02:21:10;;;;;;;20.90;14.65;;;;;;;;;;4992990;28;20057;-72
2023/06/07 02:23:36;;;;;;;20.60;15.90;;;;;;;;;;4992735;28;20029;-73
2023/06/07 02:26:03;;;;;;;20.63;16.33;;;;;;;;;;5009532;28;20053;-73
2023/06/07 02:28:28;;;;;;;18.40;15.40;;;;;;;;;;4992663;28;20033;-73
2023/06/07 02:30:55;;;;;;;19.27;15.65;;;;;;;;;;4992509;28;20132;-73
2023/06/07 02:33:24;;;;;;;19.85;15.18;;;;;;;;;;5010093;28;20144;-73
2023/06/07 02:35:49;;;;;;;18.45;14.60;;;;;;;;;;4992330;28;20088;-73
2023/06/07 02:38:15;;;;;;;18.58;15.57;;;;;;;;;;5010213;28;20022;-73
2023/06/07 02:40:41;;;;;;;19.05;15.13;;;;;;;;;;5010714;28;20073;-74
2023/06/07 02:43:06;;;;;;;16.08;14.23;;;;;;;;;;4993004;28;20044;-74
2023/06/07 02:45:32;;;;;;;18.17;15.20;;;;;;;;;;4993398;28;20096;-74
2023/06/07 02:47:57;;;;;;;17.85;15.05;;;;;;;;;;5010879;28;20103;-75
2023/06/07 02:50:23;;;;;;;20.25;14.82;;;;;;;;;;5011690;28;20030;-73
2023/06/07 02:52:48;;;;;;;22.17;14.45;;;;;;;;;;5010870;28;20057;-73
2023/06/07 02:55:14;;;;;;;23.20;15.63;;;;;;;;;;5010068;28;20053;-74
2023/06/07 02:57:40;;;;;;;20.45;15.73;;;;;;;;;;5009501;28;20048;-73
2023/06/07 03:00:11;;;;;;;20.40;16.13;;;;;;;;;;5009829;28;20049;-74
2023/06/07 03:02:41;;;;;;;21.90;17.25;;;;;;;;;;4992534;28;20048;-74
2023/06/07 03:05:07;;;;;;;21.00;15.55;;;;;;;;;;4992073;28;20032;-73
2023/06/07 03:07:35;;;;;;;18.38;14.70;;;;;;;;;;5010250;28;20105;-74
2023/06/07 03:10:01;;;;;;;21.65;15.80;;;;;;;;;;4992620;28;20034;-75
2023/06/07 03:12:26;;;;;;;22.48;16.58;;;;;;;;;;4993430;28;20025;-74
2023/06/07 03:14:52;;;;;;;21.77;15.70;;;;;;;;;;5012020;28;20044;-75
2023/06/07 03:17:17;;;;;;;21.30;15.77;;;;;;;;;;4996199;28;20111;-74
2023/06/07 03:19:43;;;;;;;21.20;15.05;;;;;;;;;;5013451;28;20021;-75
2023/06/07 03:22:09;;;;;;;19.33;15.82;;;;;;;;;;4996222;28;20390;-74
2023/06/07 03:24:36;;;;;;;18.70;14.68;;;;;;;;;;4999099;28;20063;-74
2023/06/07 03:27:03;;;;;;;22.17;16.13;;;;;;;;;;5017234;28;20025;-74
2023/06/07 03:29:30;;;;;;;23.08;16.58;;;;;;;;;;4997344;28;20498;-75
2023/06/07 03:31:55;;;;;;;25.80;15.63;;;;;;;;;;4997666;28;20029;-73
2023/06/07 03:34:21;;;;;;;22.75;15.75;;;;;;;;;;5012504;28;20512;-74
2023/06/07 03:36:47;;;;;;;19.45;15.85;;;;;;;;;;5009751;28;20627;-73
2023/06/07 03:39:13;;;;;;;24.63;16.10;;;;;;;;;;4992683;28;20117;-73
2023/06/07 03:41:38;;;;;;;16.77;14.52;;;;;;;;;;4992137;28;20022;-73
2023/06/07 03:44:04;;;;;;;18.13;14.60;;;;;;;;;;4992006;28;20029;-73
2023/06/07 03:46:30;;;;;;;22.85;16.88;;;;;;;;;;4991804;28;20017;-73
2023/06/07 03:48:55;;;;;;;19.27;15.65;;;;;;;;;;5009573;28;20045;-73
2023/06/07 03:51:21;;;;;;;19.77;16.05;;;;;;;;;;4992050;28;20022;-73
2023/06/07 03:53:46;;;;;;;19.85;15.63;;;;;;;;;;4991943;28;20029;-73
2023/06/07 03:56:12;;;;;;;19.52;16.02;;;;;;;;;;4991742;28;20195;-72
2023/06/07 03:58:37;;;;;;;21.52;16.48;;;;;;;;;;4992081;28;20030;-74
2023/06/07 04:01:03;;;;;;;21.90;15.63;;;;;;;;;;5009736;28;20084;-74
2023/06/07 04:03:30;;;;;;;21.92;16.73;;;;;;;;;;5010319;28;20018;-74
2023/06/07 04:05:56;;;;;;;22.27;16.55;;;;;;;;;;4991992;28;20041;-73
2023/06/07 04:08:23;;;;;;;18.63;15.00;;;;;;;;;;4994098;28;20037;-73
2023/06/07 04:10:49;;;;;;;19.58;15.13;;;;;;;;;;4995522;28;20022;-74
2023/06/07 04:13:15;;;;;;;31.75;15.70;;;;;;;;;;5012979;28;20336;-77
2023/06/07 04:15:41;;;;;;;20.35;14.57;;;;;;;;;;4995601;28;20076;-78
2023/06/07 04:18:06;;;;;;;19.92;14.40;;;;;;;;;;5013454;28;20085;-77
2023/06/07 04:20:32;;;;;;;17.00;13.32;;;;;;;;;;5013535;28;20628;-78
2023/06/07 04:22:58;;;;;;;26.88;15.05;;;;;;;;;;5013423;28;20502;-77
2023/06/07 04:25:33;;;;;;;19.63;14.57;;;;;;;;;;5012909;28;20018;-77
2023/06/07 04:28:00;;;;;;;22.15;15.35;;;;;;;;;;4995113;28;20017;-78
2023/06/07 04:30:34;;;;;;;18.23;14.38;;;;;;;;;;5013079;28;20026;-78
2023/06/07 04:33:03;;;;;;;17.63;14.18;;;;;;;;;;4995479;28;20018;-73
2023/06/07 04:35:31;;;;;;;19.42;14.50;;;;;;;;;;4995733;28;20442;-77
2023/06/07 04:37:57;;;;;;;20.35;16.52;;;;;;;;;;5013151;28;20132;-77
2023/06/07 04:40:23;;;;;;;20.35;14.77;;;;;;;;;;5013236;28;20478;-76
2023/06/07 04:43:04;;;;;;;19.25;14.15;;;;;;;;;;4995729;28;20121;-77
2023/06/07 04:45:32;;;;;;;22.08;15.25;;;;;;;;;;4995261;28;20026;-76
2023/06/07 04:47:58;;;;;;;20.98;15.02;;;;;;;;;;5013251;28;20642;-78
2023/06/07 04:50:26;;;;;;;23.20;15.38;;;;;;;;;;5012620;28;20026;-76
2023/06/07 04:53:00;;;;;;;21.00;14.23;;;;;;;;;;5013399;28;20555;-77
2023/06/07 04:55:31;;;;;;;18.63;13.52;;;;;;;;;;4995210;28;20092;-78
2023/06/07 04:57:58;;;;;;;24.70;16.67;;;;;;;;;;4995243;28;20045;-79
2023/06/07 05:00:26;;;;;;;24.15;15.82;;;;;;;;;;5013143;28;20068;-76
2023/06/07 05:02:53;;;;;;;24.30;15.02;;;;;;;;;;5013690;28;20026;-77
2023/06/07 05:05:21;;;;;;;18.52;14.88;;;;;;;;;;4995294;28;20038;-77
2023/06/07 05:07:49;;;;;;;16.30;14.40;;;;;;;;;;4995173;28;20025;-77
2023/06/07 05:10:15;;;;;;;16.60;13.60;;;;;;;;;;5010306;28;20076;-77
2023/06/07 05:12:40;;;;;;;18.33;13.90;;;;;;;;;;5017462;28;20022;-77
2023/06/07 05:15:06;;;;;;;18.63;13.27;;;;;;;;;;5007495;28;20034;-76
2023/06/07 05:17:32;;;;;;;20.23;15.18;;;;;;;;;;4992626;28;20617;-76
2023/06/07 05:19:57;;;;;;;20.88;13.60;;;;;;;;;;5010514;28;20029;-75
2023/06/07 05:22:23;;;;;;;21.52;14.68;;;;;;;;;;4985961;28;20126;-76
2023/06/07 05:24:50;;;;;;;22.13;13.43;;;;;;;;;;4991789;28;20033;-77
2023/06/07 05:27:15;;;;;;;23.15;13.05;;;;;;;;;;4992545;28;20026;-76
2023/06/07 05:29:41;;;;;;;15.23;10.95;;;;;;;;;;4993269;28;20036;-77
2023/06/07 05:32:07;;;;;;;14.65;10.55;;;;;;;;;;4990743;28;20033;-78
2023/06/07 05:34:32;;;;;;;14.20;11.20;;;;;;;;;;4979166;28;20635;-77
2023/06/07 05:36:58;;;;;;;25.10;12.48;;;;;;;;;;4982165;28;20087;-77
2023/06/07 05:39:24;;;;;;;14.35;11.05;;;;;;;;;;5007918;28;20108;-76
2023/06/07 05:41:50;;;;;;;11.82;10.63;;;;;;;;;;4979188;28;20038;-78
2023/06/07 05:44:16;;;;;;;14.10;10.57;;;;;;;;;;4976491;28;20029;-79
2023/06/07 05:46:42;;;;;;;13.82;10.48;;;;;;;;;;5001024;28;20025;-77
2023/06/07 05:49:07;;;;;;;13.77;10.85;;;;;;;;;;4983947;28;20046;-78
2023/06/07 05:51:33;;;;;;;11.30;9.65;;;;;;;;;;5002069;28;20107;-77
2023/06/07 05:54:00;;;;;;;15.18;10.95;;;;;;;;;;4996278;28;20091;-78
2023/06/07 05:56:27;;;;;;;21.88;10.68;;;;;;;;;;5006483;28;20029;-78
2023/06/07 05:58:53;;;;;;;13.63;11.00;;;;;;;;;;4989567;28;20034;-78
2023/06/07 06:01:19;;;;;;;16.10;9.85;;;;;;;;;;4988582;28;20091;-77
2023/06/07 06:03:44;;;;;;;15.43;10.23;;;;;;;;;;4996743;28;20049;-76
2023/06/07 06:06:18;;;;;;;12.80;10.15;;;;;;;;;;4991544;28;20037;-76
2023/06/07 06:08:45;;;;;;;14.43;10.43;;;;;;;;;;4993776;28;20046;-75
2023/06/07 06:11:13;;;;;;;16.35;10.57;;;;;;;;;;5009008;28;20021;-78
2023/06/07 06:13:40;;;;;;;12.77;9.20;;;;;;;;;;4985526;28;20415;-77
2023/06/07 06:16:06;;;;;;;15.90;10.23;;;;;;;;;;4964247;28;20034;-77
2023/06/07 06:18:32;;;;;;;18.17;10.38;;;;;;;;;;4990423;28;20236;-76
2023/06/07 06:20:58;;;;;;;18.77;10.85;;;;;;;;;;4987631;28;20045;-75
2023/06/07 06:23:24;;;;;;;19.95;11.13;;;;;;;;;;5008000;28;20026;-76
2023/06/07 06:25:50;;;;;;;15.00;9.73;;;;;;;;;;5012621;28;20028;-76
2023/06/07 06:28:16;;;;;;;15.25;10.02;;;;;;;;;;4995801;28;20502;-78
2023/06/07 06:30:42;;;;;;;12.50;9.52;;;;;;;;;;4994674;28;20084;-78
2023/06/07 06:33:07;;;;;;;12.80;10.30;;;;;;;;;;4998835;28;20035;-77
2023/06/07 06:35:33;;;;;;;18.45;11.52;;;;;;;;;;4994763;28;20029;-77
2023/06/07 06:37:59;;;;;;;15.13;9.43;;;;;;;;;;4993896;28;20029;-75
2023/06/07 06:40:26;;;;;;;12.40;9.13;;;;;;;;;;4991039;28;20042;-78
2023/06/07 06:42:52;;;;;;;13.90;9.30;;;;;;;;;;4997069;28;20026;-77
2023/06/07 06:45:18;;;;;;;16.27;9.95;;;;;;;;;;4986348;28;20139;-74
2023/06/07 06:47:45;;;;;;;16.20;9.20;;;;;;;;;;5013002;28;20032;-74
2023/06/07 06:50:12;;;;;;;14.52;9.80;;;;;;;;;;4995483;28;20026;-74
2023/06/07 06:52:41;;;;;;;12.50;9.52;;;;;;;;;;5004253;28;20093;-76
2023/06/07 06:55:08;;;;;;;15.73;9.57;;;;;;;;;;5001352;28;20041;-76
2023/06/07 06:57:33;;;;;;;13.48;9.57;;;;;;;;;;5001962;28;20065;-76
2023/06/07 07:00:00;;;;;;;16.73;9.30;;;;;;;;;;4994781;28;20179;-77
2023/06/07 07:02:27;;;;;;;21.33;10.93;;;;;;;;;;5002501;28;20129;-76
2023/06/07 07:04:53;;;;;;;13.70;10.18;;;;;;;;;;4995939;28;20124;-77
2023/06/07 07:07:19;;;;;;;14.90;10.43;;;;;;;;;;5003016;28;20452;-76
2023/06/07 07:09:45;;;;;;;14.35;9.73;;;;;;;;;;4988631;28;20045;-76
2023/06/07 07:12:11;;;;;;;12.30;9.07;;;;;;;;;;4984593;28;20030;-77
2023/06/07 07:14:36;;;;;;;11.32;8.70;;;;;;;;;;4995642;28;20037;-77
2023/06/07 07:17:02;;;;;;;11.30;9.27;;;;;;;;;;4994370;28;20050;-74
2023/06/07 07:19:28;;;;;;;19.52;9.93;;;;;;;;;;4979954;28;20077;-75
2023/06/07 07:21:54;;;;;;;10.52;8.15;;;;;;;;;;4980248;28;20086;-76
2023/06/07 07:24:22;;;;;;;11.20;8.55;;;;;;;;;;4983063;28;20041;-76
2023/06/07 07:26:48;;;;;;;14.90;9.82;;;;;;;;;;4998565;28;20107;-76
2023/06/07 07:29:14;;;;;;;12.15;9.27;;;;;;;;;;4998537;28;20022;-77
2023/06/07 07:31:40;;;;;;;9.30;8.20;;;;;;;;;;4982874;28;20600;-78
2023/06/07 07:34:05;;;;;;;13.05;8.70;;;;;;;;;;4998774;28;20033;-75
2023/06/07 07:36:33;;;;;;;15.23;11.25;;;;;;;;;;4990992;28;20026;-77
2023/06/07 07:39:04;;;;;;;13.40;9.73;;;;;;;;;;4990004;28;20155;-73
2023/06/07 07:41:33;;;;;;;14.93;10.57;;;;;;;;;;5011278;28;20033;-76
2023/06/07 07:43:59;;;;;;;11.07;9.13;;;;;;;;;;4998117;28;20038;-77
2023/06/07 07:46:24;;;;;;;16.88;10.40;;;;;;;;;;4998845;28;20032;-77
2023/06/07 07:49:02;;;;;;;15.88;9.68;;;;;;;;;;5024170;28;20029;-75
2023/06/07 07:51:28;;;;;;;19.15;10.23;;;;;;;;;;4979723;28;20228;-77
2023/06/07 07:53:53;;;;;;;11.70;9.23;;;;;;;;;;5004018;28;20207;-77
2023/06/07 07:56:23;;;;;;;19.30;11.27;;;;;;;;;;5006272;28;20057;-75
2023/06/07 07:58:50;;;;;;;13.10;9.30;;;;;;;;;;5004271;28;20021;-76
2023/06/07 08:01:18;;;;;;;11.27;9.88;;;;;;;;;;4988371;28;20042;-77
2023/06/07 08:03:49;;;;;;;17.73;9.82;;;;;;;;;;4986479;28;20504;-75
2023/06/07 08:06:16;;;;;;;;;;;;;;;;;;5001559;28;20053;-76
2023/06/07 08:08:54;;;;;;;15.02;9.60;;;;;;;;;;5004119;28;20112;-77
2023/06/07 08:11:21;;;;;;;13.52;9.63;;;;;;;;;;5003895;28;20422;-78
2023/06/07 08:13:46;;;;;;;16.35;12.05;;;;;;;;;;5005076;28;20025;-77
2023/06/07 08:16:12;;;;;;;17.75;10.45;;;;;;;;;;5004893;28;20026;-75
2023/06/07 08:19:06;;;;;;;14.60;11.07;;;;;;;;;;4984987;28;20053;-75
2023/06/07 08:21:33;;;;;;;18.30;10.13;;;;;;;;;;4992156;28;20036;-76
2023/06/07 08:23:59;;;;;;;12.93;10.00;;;;;;;;;;4986859;28;20034;-78
2023/06/07 08:26:25;;;;;;;13.90;10.05;;;;;;;;;;4987777;28;20061;-77
2023/06/07 08:28:50;;;;;;;13.38;10.10;;;;;;;;;;4986173;28;20065;-77
2023/06/07 08:31:22;;;;;;;18.75;9.70;;;;;;;;;;4982620;28;20517;-77
2023/06/07 08:33:47;;;;;;;;;;;;;;;;;;5004052;28;20045;-78
2023/06/07 08:36:14;;;;;;;14.40;10.07;;;;;;;;;;4987555;28;20309;-80
2023/06/07 08:38:41;;;;;;;21.95;9.32;;;;;;;;;;5001979;28;20508;-76
2023/06/07 08:41:07;;;;;;;22.42;10.88;;;;;;;;;;4981676;28;20029;-75
2023/06/07 08:43:33;;;;;;;21.52;16.25;;;;;;;;;;4992316;28;20096;-77
2023/06/07 08:46:05;;;;;;;16.60;9.82;;;;;;;;;;4989678;28;20041;-77
2023/06/07 08:48:35;;;;;;;18.52;9.82;;;;;;;;;;4983027;28;20041;-76
2023/06/07 08:51:04;;;;;;;12.05;8.93;;;;;;;;;;4985995;28;20038;-77
2023/06/07 08:53:41;;;;;;;21.00;10.18;;;;;;;;;;4986219;28;20141;-76
2023/06/07 08:56:07;;;;;;;17.70;9.65;;;;;;;;;;4998724;28;20094;-75
2023/06/07 08:58:33;;;;;;;11.43;9.45;;;;;;;;;;4979424;28;20022;-77
2023/06/07 09:01:00;;;;;;;11.55;10.35;;;;;;;;;;4990104;28;20670;-77
2023/06/07 09:03:27;;;;;;;11.98;9.52;;;;;;;;;;4987360;28;20032;-76
2023/06/07 09:05:56;;;;;;;13.27;9.18;;;;;;;;;;4983264;28;20391;-77
2023/06/07 09:08:22;;;;;;;13.95;9.98;;;;;;;;;;4985216;28;20041;-75
2023/06/07 09:10:49;;;;;;;13.30;9.85;;;;;;;;;;5004340;28;20084;-78
2023/06/07 09:13:21;;;;;;;18.83;12.45;;;;;;;;;;4985119;28;20045;-75
2023/06/07 09:15:54;;;;;;;17.77;9.75;;;;;;;;;;4980230;28;20088;-75
2023/06/07 09:18:19;;;;;;;13.48;10.38;;;;;;;;;;4986051;28;20046;-75
2023/06/07 09:20:46;;;;;;;11.25;9.43;;;;;;;;;;4979419;28;20030;-77
2023/06/07 09:23:16;;;;;;;17.67;10.00;;;;;;;;;;4965042;28;20034;-76
2023/06/07 09:25:45;;;;;;;10.75;9.25;;;;;;;;;;4978727;28;20034;-76
2023/06/07 09:28:13;;;;;;;14.98;10.55;;;;;;;;;;4980116;28;20053;-78
2023/06/07 09:30:59;;;;;;;16.27;9.65;;;;;;;;;;4970465;28;20038;-77
2023/06/07 09:33:30;;;;;;;21.65;10.43;;;;;;;;;;5003021;28;20037;-77
2023/06/07 09:36:05;;;;;;;11.30;8.75;;;;;;;;;;5000494;28;20128;-76
2023/06/07 09:38:33;;;;;;;14.23;9.07;;;;;;;;;;4995231;28;20125;-76
2023/06/07 09:40:59;;;;;;;16.83;10.05;;;;;;;;;;4982305;28;20045;-75
2023/06/07 09:43:25;;;;;;;16.67;9.75;;;;;;;;;;4977755;28;20065;-77
2023/06/07 09:45:55;;;;;;;9.98;8.13;;;;;;;;;;4984452;28;20323;-75
2023/06/07 09:48:30;;;;;;;12.87;8.67;;;;;;;;;;5000728;28;20061;-76
2023/06/07 09:50:59;;;;;;;17.30;9.20;;;;;;;;;;5001198;28;20034;-78
2023/06/07 09:53:29;;;;;;;13.07;9.07;;;;;;;;;;4998920;28;20064;-77
2023/06/07 09:55:54;;;;;;;12.40;9.13;;;;;;;;;;4984308;28;20030;-77
2023/06/07 09:58:22;;;;;;;10.65;8.15;;;;;;;;;;4999868;28;20045;-76
2023/06/07 10:00:57;;;;;;;10.82;7.50;;;;;;;;;;5001346;28;20084;-76
2023/06/07 10:03:28;;;;;;;13.02;7.90;;;;;;;;;;4982012;28;20452;-77
2023/06/07 10:05:54;;;;;;;17.15;9.35;;;;;;;;;;5001305;28;20556;-77
2023/06/07 10:08:21;;;;;;;12.50;8.77;;;;;;;;;;5000385;28;20577;-79
2023/06/07 10:10:49;;;;;;;13.60;7.97;;;;;;;;;;4990185;28;20026;-78
2023/06/07 10:13:19;;;;;;;9.65;7.82;;;;;;;;;;4984015;28;20417;-78
2023/06/07 10:15:46;;;;;;;10.57;6.45;;;;;;;;;;4986032;28;20029;-79
2023/06/07 10:18:44;;;;;;;7.55;5.47;;;;;;;;;;4998296;28;20481;-76
2023/06/07 10:21:18;;;;;;;8.95;5.07;;;;;;;;;;4989186;28;20053;-76
2023/06/07 10:23:51;;;;;;;5.20;4.60;;;;;;;;;;4979539;28;20589;-76
2023/06/07 10:26:41;;;;;;;7.13;4.88;;;;;;;;;;4987554;28;20744;-77
2023/06/07 10:29:11;;;;;;;7.77;5.37;;;;;;;;;;4986950;28;20035;-77
2023/06/07 10:31:48;;;;;;;9.88;7.10;;;;;;;;;;4987289;28;20072;-77
2023/06/07 10:34:14;;;;;;;9.27;6.38;;;;;;;;;;4971166;28;20034;-76
2023/06/07 10:36:41;;;;;;;9.88;5.50;;;;;;;;;;5002977;28;20026;-77
2023/06/07 10:39:07;;;;;;;9.43;5.97;;;;;;;;;;4984300;28;20156;-76
2023/06/07 10:41:35;;;;;;;8.88;4.90;;;;;;;;;;5005217;28;20030;-76
2023/06/07 10:44:01;;;;;;;7.03;4.10;;;;;;;;;;4980097;28;20034;-76
2023/06/07 10:46:30;;;;;;;5.35;4.85;;;;;;;;;;4987183;28;20083;-78
2023/06/07 10:48:56;;;;;;;5.43;4.90;;;;;;;;;;4986478;28;20057;-77
2023/06/07 10:51:58;;;;;;;6.28;5.45;;;;;;;;;;4989890;28;20034;-77
2023/06/07 10:54:31;;;;;;;6.45;4.97;;;;;;;;;;4992929;28;20145;-79
2023/06/07 10:56:59;;;;;;;10.70;5.10;;;;;;;;;;5002095;28;20036;-78
2023/06/07 10:59:26;;;;;;;6.35;5.35;;;;;;;;;;5003757;28;20057;-77
2023/06/07 11:01:54;;;;;;;6.45;5.20;;;;;;;;;;4985782;28;20037;-77
2023/06/07 11:04:35;;;;;;;6.63;4.93;;;;;;;;;;5008459;28;20030;-76
2023/06/07 11:07:19;;;;;;;6.97;4.85;;;;;;;;;;4978255;28;20430;-78
2023/06/07 11:09:46;;;;;;;8.13;4.90;;;;;;;;;;4984547;28;20561;-77
2023/06/07 11:12:46;;;;;;;7.00;4.35;;;;;;;;;;4998919;28;20343;-77
2023/06/07 11:15:36;;;;;;;13.43;7.40;;;;;;;;;;5000974;28;20018;-79
2023/06/07 11:18:11;;;;;;;4.72;4.32;;;;;;;;;;4987648;28;20125;-77
2023/06/07 11:20:43;;;;;;;6.00;4.63;;;;;;;;;;4986328;28;20026;-82
2023/06/07 11:23:31;;;;;;;6.15;5.13;;;;;;;;;;4984666;28;20062;-80
2023/06/07 11:26:08;;;;;;;8.82;5.38;;;;;;;;;;5002840;28;20434;-77
2023/06/07 11:28:37;;;;;;;7.80;5.35;;;;;;;;;;4988383;28;20030;-78
2023/06/07 11:31:03;;;;;;;8.93;4.95;;;;;;;;;;4997086;28;20084;-78
2023/06/07 11:33:33;;;;;;;8.82;4.38;;;;;;;;;;4981358;28;20037;-78
2023/06/07 11:36:00;;;;;;;7.40;5.47;;;;;;;;;;5003449;28;20125;-79
2023/06/07 11:38:26;;;;;;;10.02;5.57;;;;;;;;;;4980882;28;20104;-77
2023/06/07 11:40:52;;;;;;;12.05;6.65;;;;;;;;;;4982841;28;20475;-76
2023/06/07 11:43:24;;;;;;;7.00;6.00;;;;;;;;;;5000777;28;20038;-78
2023/06/07 11:45:50;;;;;;;8.25;7.45;;;;;;;;;;5000326;28;20034;-78
2023/06/07 11:48:43;;;;;;;9.73;6.53;;;;;;;;;;5007470;28;20042;-77
2023/06/07 11:51:08;;;;;;;6.22;5.63;;;;;;;;;;4973471;28;20146;-79
2023/06/07 11:53:34;;;;;;;7.65;5.85;;;;;;;;;;4984486;28;20160;-78
2023/06/07 11:56:01;;;;;;;23.92;6.93;;;;;;;;;;5003947;28;20089;-78
2023/06/07 11:58:27;;;;;;;10.07;5.82;;;;;;;;;;5004589;28;20037;-80
2023/06/07 12:00:53;;;;;;;7.47;4.80;;;;;;;;;;5010576;28;20575;-78
2023/06/07 12:03:37;;;;;;;7.28;4.63;;;;;;;;;;4974620;28;20038;-77
2023/06/07 12:06:04;;;;;;;8.40;5.45;;;;;;;;;;4995312;28;20034;-79
2023/06/07 12:08:31;;;;;;;6.00;4.90;;;;;;;;;;4998264;28;20032;-78
2023/06/07 12:10:57;;;;;;;15.98;5.75;;;;;;;;;;4984459;28;20034;-77
2023/06/07 12:13:23;;;;;;;5.72;4.63;;;;;;;;;;5001164;28;20038;-78
2023/06/07 12:15:53;;;;;;;6.28;4.10;;;;;;;;;;4986742;28;21460;-78
2023/06/07 12:19:03;;;;;;;7.95;5.00;;;;;;;;;;5000787;28;20044;-77
2023/06/07 12:21:29;;;;;;;5.32;4.78;;;;;;;;;;4980309;28;20029;-78
2023/06/07 12:24:00;;;;;;;4.90;4.38;;;;;;;;;;5001645;28;20032;-77
2023/06/07 12:26:26;;;;;;;9.13;5.15;;;;;;;;;;4984761;28;20034;-76
2023/06/07 12:28:53;;;;;;;4.95;4.18;;;;;;;;;;4991176;28;20107;-79
2023/06/07 12:31:26;;;;;;;8.73;4.85;;;;;;;;;;5005318;28;20053;-77
2023/06/07 12:34:14;;;;;;;9.55;4.57;;;;;;;;;;4980727;28;20098;-77
2023/06/07 12:36:47;;;;;;;11.82;4.50;;;;;;;;;;5004008;28;20022;-77
2023/06/07 12:39:17;;;;;;;4.72;4.13;;;;;;;;;;5000723;28;20044;-78
2023/06/07 12:41:43;;;;;;;4.87;4.37;;;;;;;;;;5007327;28;20494;-78
2023/06/07 12:44:10;;;;;;;4.53;4.13;;;;;;;;;;4983153;28;20034;-77
2023/06/07 12:46:38;;;;;;;6.63;4.60;;;;;;;;;;4983219;28;20113;-77
2023/06/07 12:49:06;;;;;;;6.13;4.38;;;;;;;;;;4985996;28;20070;-77
2023/06/07 12:51:37;;;;;;;5.10;4.13;;;;;;;;;;4998717;28;20060;-77
2023/06/07 12:54:15;;;;;;;7.40;4.53;;;;;;;;;;4983184;28;20034;-76
2023/06/07 12:57:04;;;;;;;8.00;4.05;;;;;;;;;;5004619;28;20041;-77
2023/06/07 12:59:32;;;;;;;4.32;3.42;;;;;;;;;;4987886;28;20080;-76
2023/06/07 13:02:01;;;;;;;7.20;3.38;;;;;;;;;;4968152;28;20050;-78
2023/06/07 13:04:27;;;;;;;5.35;3.25;;;;;;;;;;5002310;28;20124;-76
2023/06/07 13:06:56;;;;;;;6.07;3.50;;;;;;;;;;4978444;28;20037;-78
2023/06/07 13:09:28;;;;;;;3.80;2.95;;;;;;;;;;4996326;28;20190;-78
2023/06/07 13:11:55;;;;;;;4.82;3.63;;;;;;;;;;5000300;28;20037;-77
2023/06/07 13:14:21;;;;;;;4.90;3.53;;;;;;;;;;4988600;28;20161;-76
2023/06/07 13:16:47;;;;;;;4.10;2.97;;;;;;;;;;4985195;28;20041;-76
2023/06/07 13:19:13;;;;;;;4.90;3.25;;;;;;;;;;4989009;28;20049;-75
2023/06/07 13:21:39;;;;;;;5.35;3.33;;;;;;;;;;4988680;28;20022;-77
2023/06/07 13:24:05;;;;;;;5.22;3.08;;;;;;;;;;4969173;28;20040;-76
2023/06/07 13:26:32;;;;;;;4.53;3.08;;;;;;;;;;4999317;28;20033;-77
2023/06/07 13:28:58;;;;;;;10.45;3.92;;;;;;;;;;5000595;28;20053;-76
2023/06/07 13:31:25;;;;;;;3.78;3.00;;;;;;;;;;4990341;28;20033;-76
2023/06/07 13:33:50;;;;;;;5.80;3.47;;;;;;;;;;5007849;28;20060;-78
2023/06/07 13:36:16;;;;;;;4.88;3.08;;;;;;;;;;4986863;28;20455;-77
2023/06/07 13:38:43;;;;;;;9.07;5.05;;;;;;;;;;4992102;28;20113;-77
2023/06/07 13:41:09;;;;;;;4.32;3.05;;;;;;;;;;5000676;28;20026;-76
2023/06/07 13:43:37;;;;;;;4.88;3.28;;;;;;;;;;5010949;28;20030;-79
2023/06/07 13:46:02;;;;;;;3.38;2.80;;;;;;;;;;4996269;28;20045;-75
2023/06/07 13:48:48;;;;;;;6.72;3.70;;;;;;;;;;4994112;28;20101;-76
2023/06/07 13:51:13;;;;;;;6.10;3.35;;;;;;;;;;5004293;28;20046;-76
2023/06/07 13:53:40;;;;;;;4.72;3.40;;;;;;;;;;5004747;28;20112;-77
2023/06/07 13:56:07;;;;;;;6.88;4.93;;;;;;;;;;5006050;28;20109;-77
2023/06/07 13:58:36;;;;;;;6.57;3.42;;;;;;;;;;4989420;28;20036;-76
2023/06/07 14:01:03;;;;;;;7.32;4.35;;;;;;;;;;5004527;28;20157;-79
2023/06/07 14:03:47;;;;;;;5.07;3.50;;;;;;;;;;4984768;28;20189;-79
2023/06/07 14:06:13;;;;;;;4.93;3.58;;;;;;;;;;4987752;28;20026;-78
2023/06/07 14:08:38;;;;;;;5.93;3.55;;;;;;;;;;4989219;28;20087;-77
2023/06/07 14:11:06;;;;;;;6.03;4.20;;;;;;;;;;4984905;28;20033;-76
2023/06/07 14:13:32;;;;;;;5.82;4.30;;;;;;;;;;5006851;28;20046;-78
2023/06/07 14:15:58;;;;;;;8.50;3.53;;;;;;;;;;5012179;28;20120;-77
2023/06/07 14:21:24;;;;;;;5.00;3.30;;;;;;;;;;5005090;28;20061;-78
2023/06/07 14:23:50;;;;;;;8.82;4.00;;;;;;;;;;4992196;28;20047;-78
2023/06/07 14:26:15;;;;;;;8.10;3.53;;;;;;;;;;4989990;28;20120;-78
2023/06/07 14:28:43;;;;;;;4.82;3.75;;;;;;;;;;5007331;28;20429;-78
2023/06/07 14:31:09;;;;;;;7.95;4.38;;;;;;;;;;4991206;28;20054;-77
2023/06/07 14:33:35;;;;;;;6.18;3.70;;;;;;;;;;4989157;28;20033;-76
2023/06/07 14:36:00;;;;;;;9.43;4.35;;;;;;;;;;4986562;28;20033;-78
2023/06/07 14:38:26;;;;;;;6.22;3.55;;;;;;;;;;4987936;28;20041;-77
2023/06/07 14:40:51;;;;;;;10.27;4.07;;;;;;;;;;4989537;28;20033;-75